Time;durP1;ratioP1;P1;durP2;ratioP2;P2;SDS_P1;SDS_P2;PMS_P1;PMS_P2;Temp;Humidity;BMP_temperature;BMP_pressure;BME280_temperature;BME280_humidity;BME280_pressure;Samples;Min_cycle;Max_cycle;Signal;HPM_P1;HPM_P2
2021/12/25 00:01:22;;;;;;;28.80;15.77;;;;;;;3.90;91.41;100313.78;10440077;28;20049;-81
2021/12/25 00:06:26;;;;;;;31.48;19.90;;;;;;;4.01;91.02;100311.88;10456028;28;20447;-81
2021/12/25 00:11:34;;;;;;;29.63;17.20;;;;;;;4.04;90.73;100313.78;10488829;28;20108;-81
2021/12/25 00:16:39;;;;;;;27.50;17.58;;;;;;;3.90;90.30;100318.97;10442236;28;20021;-81
2021/12/25 00:21:45;;;;;;;27.27;17.85;;;;;;;3.85;91.00;100316.84;10450410;28;20029;-81
2021/12/25 00:27:08;;;;;;;38.05;23.90;;;;;;;3.85;90.70;100324.63;10457538;28;20035;-81
2021/12/25 00:37:20;;;;;;;36.00;24.48;;;;;;;3.94;91.55;100312.25;10456350;28;20110;-81
2021/12/25 00:42:22;;;;;;;36.00;21.58;;;;;;;3.94;91.06;100305.41;10457828;28;20045;-81
2021/12/25 00:47:29;;;;;;;37.60;25.02;;;;;;;3.91;91.39;100300.03;10456164;28;20025;-81
2021/12/25 00:52:32;;;;;;;35.90;24.83;;;;;;;3.92;91.24;100311.28;10455216;28;20048;-81
2021/12/25 00:57:44;;;;;;;42.13;21.67;;;;;;;3.82;91.37;100305.50;10455149;28;20021;-81
2021/12/25 01:02:52;;;;;;;30.88;20.02;;;;;;;3.91;90.70;100296.53;10471208;28;20078;-80
2021/12/25 01:07:55;;;;;;;24.90;16.25;;;;;;;3.91;90.31;100297.44;10474410;28;20106;-80
2021/12/25 01:13:08;;;;;;;27.98;18.70;;;;;;;3.88;90.23;100294.66;10458101;28;20085;-80
2021/12/25 01:24:29;;;;;;;25.58;16.33;;;;;;;3.82;89.82;100299.44;10455568;28;20045;-80
2021/12/25 01:50:47;;;;;;;35.50;22.30;;;;;;;3.62;90.27;100296.44;10453718;28;20048;-79
2021/12/25 01:56:02;;;;;;;31.77;20.77;;;;;;;3.60;90.53;100300.59;10460761;28;20086;-79
2021/12/25 02:01:22;;;;;;;35.72;22.40;;;;;;;3.65;90.44;100303.47;10476194;28;20048;-79
2021/12/25 02:06:29;;;;;;;35.28;20.92;;;;;;;3.52;90.32;100305.25;10454981;28;20037;-81
2021/12/25 02:11:33;;;;;;;34.97;20.70;;;;;;;3.54;89.94;100300.19;10453222;28;20144;-81
2021/12/25 02:16:53;;;;;;;32.80;19.48;;;;;;;3.41;89.47;100297.59;10454800;28;20021;-80
2021/12/25 02:21:58;;;;;;;24.77;17.08;;;;;;;3.37;89.47;100297.38;10452193;28;20435;-80
2021/12/25 02:27:03;;;;;;;26.08;16.90;;;;;;;3.32;89.57;100295.25;10451637;28;20524;-80
2021/12/25 02:32:05;;;;;;;24.52;16.85;;;;;;;3.33;89.45;100305.72;10454777;28;20033;-80
2021/12/25 02:37:10;;;;;;;34.20;19.95;;;;;;;3.28;89.56;100301.00;10468123;28;20075;-80
2021/12/25 02:42:10;;;;;;;27.10;18.58;;;;;;;3.20;88.78;100293.63;10453724;28;20049;-80
2021/12/25 02:47:19;;;;;;;24.65;15.90;;;;;;;3.18;88.79;100305.56;10451529;28;20104;-80
2021/12/25 02:52:24;;;;;;;25.05;14.05;;;;;;;3.05;88.41;100298.66;10484331;28;20035;-80
2021/12/25 02:57:25;;;;;;;24.13;16.08;;;;;;;2.98;89.03;100298.13;10435458;28;20124;-80
2021/12/25 03:02:34;;;;;;;29.47;20.07;;;;;;;2.89;89.46;100291.53;10467984;28;20032;-81
2021/12/25 03:07:38;;;;;;;37.60;22.70;;;;;;;2.88;89.71;100289.72;10451813;28;20357;-81
2021/12/25 03:13:05;;;;;;;37.00;24.58;;;;;;;2.81;90.10;100287.50;10452121;28;20457;-82
2021/12/25 03:18:09;;;;;;;44.97;27.02;;;;;;;2.77;90.19;100294.19;10452282;28;20036;-82
2021/12/25 03:23:16;;;;;;;52.20;35.57;;;;;;;2.74;90.27;100296.53;10404962;28;20056;-82
2021/12/25 03:28:21;;;;;;;50.05;31.13;;;;;;;2.51;90.38;100297.50;10451108;28;20356;-82
2021/12/25 03:33:23;;;;;;;53.88;37.17;;;;;;;2.39;90.49;100306.97;10469130;28;20059;-81
2021/12/25 03:38:28;;;;;;;64.07;38.67;;;;;;;2.29;90.80;100308.88;10432205;28;20401;-80
2021/12/25 03:43:38;;;;;;;70.20;42.63;;;;;;;2.36;91.10;100315.41;10450749;28;20494;-80
2021/12/25 03:58:58;;;;;;;64.45;39.67;;;;;;;2.01;91.35;100332.69;10458930;28;20484;-80
2021/12/25 04:04:21;;;;;;;70.15;44.28;;;;;;;1.88;90.91;100336.09;10428340;28;20387;-81
2021/12/25 04:09:28;;;;;;;;;;;;;;;1.84;91.16;100343.47;10487873;28;20033;-81
2021/12/25 04:14:29;;;;;;;69.35;46.45;;;;;;;1.71;90.94;100339.97;10473860;28;20006;-81
2021/12/25 04:19:31;;;;;;;63.67;40.93;;;;;;;1.59;91.35;100345.13;10439838;28;20464;-80
2021/12/25 04:24:37;;;;;;;77.63;46.67;;;;;;;1.62;91.89;100347.03;10457856;28;20029;-80
2021/12/25 04:29:49;;;;;;;64.18;42.47;;;;;;;1.72;91.95;100353.78;10457541;28;20389;-81
2021/12/25 05:01:44;;;;;;;81.63;50.13;;;;;;;1.43;92.03;100376.59;10446098;28;20046;-81
2021/12/25 05:02:06;;;;;;;68.43;43.35;;;;;;;1.41;92.15;100370.41;10455969;28;20423;-82
2021/12/25 05:07:12;;;;;;;64.57;44.50;;;;;;;1.36;91.74;100376.91;10455490;28;20083;-82
2021/12/25 05:12:17;;;;;;;60.97;41.60;;;;;;;1.25;91.45;100381.25;10438080;28;20079;-82
2021/12/25 05:17:21;;;;;;;65.43;42.58;;;;;;;1.21;91.78;100381.78;10454405;28;20032;-82
2021/12/25 05:22:31;;;;;;;67.07;38.65;;;;;;;1.24;91.96;100384.59;10441887;28;20082;-82
2021/12/25 05:27:33;;;;;;;59.22;38.50;;;;;;;1.19;92.00;100385.00;10457500;28;20029;-82
2021/12/25 05:32:43;;;;;;;57.95;37.65;;;;;;;1.10;91.33;100398.09;10429082;28;20493;-81
2021/12/25 05:38:04;;;;;;;63.00;38.75;;;;;;;1.04;91.85;100393.34;10438171;28;20087;-84
2021/12/25 05:43:10;;;;;;;63.28;40.20;;;;;;;0.97;91.48;100407.47;10433547;28;20041;-82
2021/12/25 05:48:14;;;;;;;62.67;36.92;;;;;;;0.83;91.69;100401.19;10452997;28;20083;-83
2021/12/25 05:53:17;;;;;;;61.47;38.00;;;;;;;0.78;91.80;100401.63;10420620;28;20517;-84
2021/12/25 05:58:18;;;;;;;56.25;34.00;;;;;;;0.75;92.04;100404.84;10451504;28;20063;-84
2021/12/25 06:03:18;;;;;;;58.50;34.80;;;;;;;0.66;90.95;100409.25;10468679;28;20545;-85
2021/12/25 06:08:18;;;;;;;55.65;34.17;;;;;;;0.66;91.09;100422.16;10436696;28;20190;-82
2021/12/25 06:13:21;;;;;;;49.42;33.08;;;;;;;0.55;91.72;100421.28;10434169;28;20037;-84
2021/12/25 06:18:22;;;;;;;51.17;35.38;;;;;;;0.50;91.70;100436.38;10436175;28;20473;-85
2021/12/25 06:23:22;;;;;;;58.83;36.00;;;;;;;0.49;91.60;100444.84;10451657;28;20036;-84
2021/12/25 06:28:23;;;;;;;57.33;39.13;;;;;;;0.45;91.13;100449.66;10453104;28;20107;-82
2021/12/25 06:33:23;;;;;;;50.08;33.45;;;;;;;0.31;90.78;100456.22;10484850;28;20060;-84
2021/12/25 06:38:24;;;;;;;49.80;32.47;;;;;;;0.20;91.25;100463.97;10467280;28;20076;-85
2021/12/25 06:43:24;;;;;;;49.53;33.90;;;;;;;0.08;91.20;100462.97;10452457;28;20123;-85
2021/12/25 06:48:26;;;;;;;50.50;32.08;;;;;;;0.06;91.89;100468.00;10436539;28;20044;-86
2021/12/25 06:53:26;;;;;;;45.03;31.35;;;;;;;-0.06;91.04;100475.56;10452602;28;20094;-84
2021/12/25 06:58:27;;;;;;;44.20;28.55;;;;;;;-0.17;90.95;100474.69;10416826;28;20506;-83
2021/12/25 07:03:27;;;;;;;40.97;27.70;;;;;;;-0.25;91.22;100486.00;10450364;28;20090;-82
2021/12/25 07:08:28;;;;;;;48.92;32.78;;;;;;;-0.42;90.82;100488.81;10451907;28;20484;-82
2021/12/25 07:13:28;;;;;;;48.92;30.20;;;;;;;-0.47;91.10;100494.47;10449160;28;20580;-82
2021/12/25 07:18:29;;;;;;;50.15;32.60;;;;;;;-0.53;90.81;100503.31;10466616;28;20066;-86
2021/12/25 07:23:29;;;;;;;51.80;27.60;;;;;;;-0.61;91.15;100505.22;10450515;28;20041;-82
2021/12/25 07:28:30;;;;;;;48.08;28.58;;;;;;;-0.66;91.19;100514.22;10448696;28;20040;-84
2021/12/25 07:33:32;;;;;;;42.58;29.80;;;;;;;-0.71;91.05;100511.22;10460040;28;20124;-82
2021/12/25 07:38:32;;;;;;;40.92;25.60;;;;;;;-0.73;91.02;100519.59;10459190;28;20076;-83
2021/12/25 07:43:33;;;;;;;46.33;29.52;;;;;;;-0.78;91.62;100517.53;10457632;28;20137;-83
2021/12/25 07:48:34;;;;;;;43.15;28.52;;;;;;;-0.72;91.56;100516.25;10459080;28;20036;-83
2021/12/25 07:53:34;;;;;;;47.55;31.60;;;;;;;-0.79;91.36;100528.56;10459270;28;20092;-86
2021/12/25 07:58:35;;;;;;;51.92;33.22;;;;;;;-0.79;91.18;100528.56;10472041;28;20132;-85
2021/12/25 08:03:35;;;;;;;44.33;29.60;;;;;;;-0.81;91.34;100542.94;10459612;28;20033;-86
2021/12/25 08:08:36;;;;;;;46.28;29.10;;;;;;;-0.75;91.20;100540.00;10441472;28;20033;-87
2021/12/25 08:13:36;;;;;;;51.72;31.65;;;;;;;-0.72;91.25;100547.09;10458423;28;20484;-85
2021/12/25 08:18:37;;;;;;;41.28;25.33;;;;;;;-0.70;91.47;100543.00;10463464;28;20029;-87
2021/12/25 08:23:37;;;;;;;41.65;28.50;;;;;;;-0.71;90.91;100556.59;10448044;28;20540;-85
2021/12/25 08:28:38;;;;;;;50.20;29.45;;;;;;;-0.72;90.79;100555.69;10458155;28;20052;-85
2021/12/25 08:33:38;;;;;;;57.38;33.63;;;;;;;-0.85;90.97;100564.00;10478162;28;20063;-87
2021/12/25 08:38:39;;;;;;;57.40;34.33;;;;;;;-0.87;91.50;100570.69;10468900;28;20436;-89
2021/12/25 08:43:47;;;;;;;50.45;29.73;;;;;;;-0.82;91.30;100565.94;10457182;28;20056;-92
2021/12/25 08:48:47;;;;;;;44.13;27.83;;;;;;;-0.79;90.82;100576.47;10469342;28;20499;-87
2021/12/25 08:53:48;;;;;;;44.08;29.60;;;;;;;-0.82;91.19;100578.78;10455074;28;20126;-87
2021/12/25 08:58:49;;;;;;;47.17;29.02;;;;;;;-0.77;90.91;100591.28;10451270;28;20040;-86
2021/12/25 09:03:49;;;;;;;44.10;28.27;;;;;;;-0.80;91.26;100602.94;10478289;28;20082;-86
2021/12/25 09:08:50;;;;;;;45.90;28.70;;;;;;;-0.82;91.67;100614.75;10466468;28;20025;-86
2021/12/25 09:13:51;;;;;;;44.88;29.50;;;;;;;-0.69;91.72;100614.19;10455593;28;20059;-86
2021/12/25 09:18:51;;;;;;;56.75;33.83;;;;;;;-0.66;91.58;100617.91;10457198;28;20054;-87
2021/12/25 09:23:52;;;;;;;38.05;26.83;;;;;;;-0.82;90.95;100623.38;10450706;28;20028;-87
2021/12/25 09:28:52;;;;;;;43.47;27.25;;;;;;;-0.81;91.40;100620.03;10448730;28;20033;-84
2021/12/25 09:33:53;;;;;;;42.97;28.35;;;;;;;-0.72;90.80;100621.63;10490125;28;20055;-85
2021/12/25 09:38:53;;;;;;;41.63;26.98;;;;;;;-0.54;91.26;100612.06;10434979;28;20090;-84
2021/12/25 09:43:54;;;;;;;44.22;29.88;;;;;;;-0.50;90.04;100614.13;10457745;28;20377;-83
2021/12/25 09:48:54;;;;;;;37.63;25.92;;;;;;;-0.50;88.25;100606.41;10465438;28;20060;-84
2021/12/25 09:54:06;;;;;;;37.40;23.52;;;;;;;-0.57;88.07;100607.56;10464396;28;20040;-85
2021/12/25 09:59:07;;;;;;;39.47;26.27;;;;;;;-0.44;88.14;100612.09;10470009;28;20069;-84
2021/12/25 10:04:10;;;;;;;33.25;23.88;;;;;;;-0.50;87.49;100615.03;10453634;28;20032;-82
2021/12/25 10:09:24;;;;;;;31.25;21.10;;;;;;;-0.57;87.90;100622.97;10469819;28;20171;-83
2021/12/25 10:14:25;;;;;;;38.75;21.17;;;;;;;-0.51;87.56;100633.81;10452894;28;20025;-83
2021/12/25 10:19:27;;;;;;;33.17;22.60;;;;;;;-0.62;86.99;100643.13;10454569;28;20487;-83
2021/12/25 10:24:29;;;;;;;32.58;22.00;;;;;;;-0.55;87.73;100660.03;10453561;28;20166;-82
2021/12/25 10:29:29;;;;;;;;;;;;;;;-0.58;87.45;100651.13;10455510;28;20025;-81
2021/12/25 10:34:30;;;;;;;42.75;30.92;;;;;;;-0.63;87.33;100666.16;10453184;28;19917;-82
2021/12/25 10:39:31;;;;;;;30.50;19.67;;;;;;;-0.65;87.76;100666.00;10452561;28;20036;-81
2021/12/25 10:44:36;;;;;;;27.15;18.30;;;;;;;-0.70;87.94;100666.38;10453843;28;20021;-82
2021/12/25 10:49:48;;;;;;;28.33;18.92;;;;;;;-0.62;87.06;100655.09;10454321;28;20114;-82
2021/12/25 10:54:53;;;;;;;30.50;19.30;;;;;;;-0.40;87.28;100645.03;10451776;28;20480;-82
2021/12/25 10:59:53;;;;;;;29.63;20.02;;;;;;;-0.23;87.13;100645.59;10418109;28;20443;-81
2021/12/25 11:04:54;;;;;;;25.98;16.88;;;;;;;-0.02;86.25;100634.59;10451096;28;20056;-81
2021/12/25 11:10:08;;;;;;;27.10;17.58;;;;;;;-0.12;84.25;100639.72;10452094;28;20070;-81
2021/12/25 11:15:16;;;;;;;24.92;17.08;;;;;;;0.03;83.51;100621.22;10409782;28;20029;-82
2021/12/25 11:20:23;;;;;;;18.95;12.32;;;;;;;0.02;83.45;100620.34;10436652;28;20066;-82
2021/12/25 11:25:25;;;;;;;22.00;13.32;;;;;;;0.22;83.00;100606.56;10437141;28;20031;-82
2021/12/25 11:30:30;;;;;;;19.45;14.13;;;;;;;0.53;84.45;100614.31;10435003;28;20032;-82
2021/12/25 11:35:33;;;;;;;22.35;14.50;;;;;;;0.49;81.75;100608.78;10452202;28;20090;-83
2021/12/25 11:40:37;;;;;;;18.30;13.27;;;;;;;0.19;82.55;100620.88;10452370;28;20111;-82
2021/12/25 11:45:42;;;;;;;19.20;11.88;;;;;;;-0.05;82.60;100621.47;10452323;28;20025;-83
2021/12/25 11:50:45;;;;;;;19.00;14.30;;;;;;;-0.12;83.47;100629.44;10464974;28;20033;-83
2021/12/25 12:01:39;;;;;;;24.92;15.40;;;;;;;-0.18;82.83;100634.97;10467246;28;20051;-83
2021/12/25 12:06:51;;;;;;;18.83;12.45;;;;;;;-0.03;83.49;100630.22;10450325;28;20037;-83
2021/12/25 12:12:10;;;;;;;17.52;10.38;;;;;;;-0.11;80.84;100627.78;10451317;28;20041;-83
2021/12/25 12:17:13;;;;;;;16.25;10.73;;;;;;;-0.02;82.31;100626.88;10454352;28;20036;-83
2021/12/25 12:27:33;;;;;;;15.85;9.27;;;;;;;0.00;81.71;100629.59;10458961;28;20743;-83
2021/12/25 12:32:43;;;;;;;13.73;7.93;;;;;;;-0.03;80.54;100619.03;10459012;28;20032;-82
2021/12/25 12:37:44;;;;;;;16.40;8.52;;;;;;;0.02;82.21;100607.47;10456372;28;20040;-83
2021/12/25 12:42:47;;;;;;;11.93;7.97;;;;;;;0.02;81.74;100616.84;10456012;28;20477;-82
2021/12/25 12:48:14;;;;;;;13.15;8.18;;;;;;;0.21;80.05;100624.47;10457112;28;20037;-81
2021/12/25 12:53:15;;;;;;;12.15;8.07;;;;;;;0.02;79.85;100629.72;10439766;28;20033;-83
2021/12/25 12:58:26;;;;;;;13.90;8.13;;;;;;;0.01;79.76;100636.53;10472692;28;20045;-81
2021/12/25 13:03:29;;;;;;;11.43;8.13;;;;;;;-0.20;79.71;100640.72;10452412;28;20037;-90
2021/12/25 13:08:40;;;;;;;13.40;8.38;;;;;;;-0.39;80.17;100638.22;10455994;28;20102;-88
2021/12/25 13:13:59;;;;;;;23.13;10.50;;;;;;;-0.38;81.60;100652.88;10455955;28;20050;-90
2021/12/25 13:19:07;;;;;;;12.85;8.18;;;;;;;-0.40;81.44;100646.72;10440292;28;20393;-82
2021/12/25 13:24:18;;;;;;;8.52;6.43;;;;;;;-0.39;80.98;100646.81;10455381;28;20025;-89
2021/12/25 13:29:22;;;;;;;16.67;7.47;;;;;;;-0.42;81.10;100651.69;10451278;28;20072;-86
2021/12/25 13:34:23;;;;;;;9.98;7.60;;;;;;;-0.34;81.40;100652.38;10450436;28;20430;-78
2021/12/25 13:39:32;;;;;;;12.07;8.03;;;;;;;-0.22;81.95;100655.13;10422185;28;20497;-80
2021/12/25 13:44:34;;;;;;;12.15;6.78;;;;;;;-0.30;79.82;100657.91;10439272;28;20032;-79
2021/12/25 13:49:45;;;;;;;12.10;7.05;;;;;;;-0.52;80.02;100649.09;10449619;28;20504;-80
2021/12/25 13:55:12;;;;;;;10.15;5.57;;;;;;;-0.68;79.78;100658.00;10449569;28;20108;-78
2021/12/25 14:00:32;;;;;;;13.48;6.57;;;;;;;-0.73;80.13;100663.53;10469067;28;20144;-78
2021/12/25 14:05:37;;;;;;;8.43;5.25;;;;;;;-0.66;80.21;100655.59;10484544;28;20106;-78
2021/12/25 14:10:41;;;;;;;8.30;5.07;;;;;;;-0.71;81.51;100650.03;10458654;28;20063;-79
2021/12/25 14:15:46;;;;;;;7.57;5.03;;;;;;;-0.73;81.19;100651.56;10461193;28;20029;-78
2021/12/25 14:20:49;;;;;;;8.65;4.60;;;;;;;-0.80;80.81;100633.78;10456500;28;20033;-79
2021/12/25 14:26:01;;;;;;;9.65;4.90;;;;;;;-0.90;79.86;100639.78;10451498;28;20036;-80
2021/12/25 14:31:16;;;;;;;10.65;5.50;;;;;;;-0.84;80.77;100650.63;10457974;28;20024;-80
2021/12/25 14:36:39;;;;;;;10.85;3.83;;;;;;;-0.85;80.00;100655.59;10433559;28;20396;-80
2021/12/25 14:41:46;;;;;;;8.55;5.45;;;;;;;-0.89;79.64;100657.88;10452168;28;20102;-81
2021/12/25 14:47:07;;;;;;;8.73;4.47;;;;;;;-0.87;79.88;100660.63;10422348;28;20032;-79
2021/12/25 14:52:28;;;;;;;7.47;5.18;;;;;;;-0.84;79.57;100657.41;10450598;28;20523;-79
2021/12/25 14:57:29;;;;;;;7.70;4.88;;;;;;;-0.85;80.42;100655.59;10453752;28;20079;-77
2021/12/25 15:02:31;;;;;;;6.40;4.78;;;;;;;-0.78;81.04;100665.66;10450465;28;20029;-77
2021/12/25 15:07:34;;;;;;;7.03;3.72;;;;;;;-0.79;80.75;100685.34;10435133;28;20025;-83
2021/12/25 15:12:37;;;;;;;8.02;4.45;;;;;;;-0.85;81.04;100684.78;10425961;28;20063;-77
2021/12/25 15:17:41;;;;;;;6.78;3.90;;;;;;;-0.83;79.35;100687.47;10455536;28;20151;-78
2021/12/25 15:22:42;;;;;;;9.07;4.53;;;;;;;-0.81;80.10;100691.09;10409678;28;20029;-76
2021/12/25 15:27:53;;;;;;;8.95;3.55;;;;;;;-0.79;80.42;100689.56;10452378;28;20124;-78
2021/12/25 15:33:01;;;;;;;5.10;2.75;;;;;;;-0.81;80.92;100693.66;10433557;28;20044;-77
2021/12/25 15:38:02;;;;;;;4.88;2.90;;;;;;;-0.87;79.67;100694.03;10433919;28;20124;-78
2021/12/25 15:43:03;;;;;;;7.63;3.38;;;;;;;-0.87;80.45;100699.16;10450917;28;20041;-80
2021/12/25 15:48:04;;;;;;;5.83;3.00;;;;;;;-0.84;78.57;100701.09;10450343;28;20065;-78
2021/12/25 15:53:05;;;;;;;11.52;5.75;;;;;;;-0.87;78.56;100701.72;10456460;28;20088;-76
2021/12/25 15:58:09;;;;;;;7.47;3.87;;;;;;;-0.81;78.25;100698.78;10463088;28;20054;-77
2021/12/25 16:03:10;;;;;;;5.70;3.95;;;;;;;-0.86;79.08;100707.75;10424385;28;20047;-76
2021/12/25 16:08:16;;;;;;;8.45;3.88;;;;;;;-0.77;77.48;100700.88;10463323;28;20370;-78
2021/12/25 16:13:22;;;;;;;6.40;3.22;;;;;;;-0.84;77.68;100703.66;10437654;28;20037;-76
2021/12/25 16:18:24;;;;;;;9.23;4.40;;;;;;;-0.77;76.02;100703.44;10456191;28;20691;-75
2021/12/25 16:23:26;;;;;;;5.10;3.58;;;;;;;-0.85;77.79;100714.69;10478744;28;20033;-76
2021/12/25 16:28:27;;;;;;;8.30;3.70;;;;;;;-0.87;78.34;100706.88;10468922;28;20025;-80
2021/12/25 16:33:28;;;;;;;5.00;3.25;;;;;;;-1.00;77.02;100715.13;10456428;28;20124;-84
2021/12/25 16:38:30;;;;;;;7.32;3.67;;;;;;;-0.92;75.63;100708.13;10454821;28;20033;-77
2021/12/25 16:43:34;;;;;;;8.13;3.97;;;;;;;-0.91;76.40;100726.22;10437810;28;20044;-79
2021/12/25 16:48:35;;;;;;;;;;;;;;;-0.96;73.79;100718.88;10458800;28;20397;-79
2021/12/25 16:53:35;;;;;;;8.43;3.30;;;;;;;-1.06;74.05;100715.47;10456453;28;19924;-82
2021/12/25 16:58:36;;;;;;;6.53;3.13;;;;;;;-1.08;73.19;100722.13;10456968;28;20037;-80
2021/12/25 17:03:37;;;;;;;4.65;2.67;;;;;;;-1.08;73.25;100719.56;10454730;28;20136;-80
2021/12/25 17:08:38;;;;;;;4.63;3.10;;;;;;;-1.12;73.22;100716.56;10454970;28;20020;-80
2021/12/25 17:13:39;;;;;;;4.75;3.17;;;;;;;-1.12;72.63;100722.63;10454384;28;20039;-79
2021/12/25 17:18:39;;;;;;;4.60;2.13;;;;;;;-1.15;71.59;100722.34;10470827;28;20104;-79
2021/12/25 17:23:40;;;;;;;4.85;3.17;;;;;;;-1.21;70.21;100721.78;10457467;28;20020;-80
2021/12/25 17:28:41;;;;;;;5.53;3.08;;;;;;;-1.32;70.78;100718.19;10458712;28;20036;-80
2021/12/25 17:33:42;;;;;;;5.07;2.70;;;;;;;-1.34;72.84;100724.84;10458367;28;20029;-80
2021/12/25 17:38:44;;;;;;;4.13;2.80;;;;;;;-1.43;70.42;100717.22;10455056;28;20514;-79
2021/12/25 17:43:45;;;;;;;3.45;1.80;;;;;;;-1.45;70.19;100722.94;10445919;28;20029;-79
2021/12/25 17:48:45;;;;;;;3.92;2.20;;;;;;;-1.51;69.86;100731.88;10452182;28;21457;-80
2021/12/25 17:53:46;;;;;;;5.00;2.40;;;;;;;-1.55;68.59;100734.03;10447765;28;20045;-79
2021/12/25 17:58:46;;;;;;;5.00;2.42;;;;;;;-1.63;69.90;100723.03;10455970;28;20021;-80
2021/12/25 18:03:47;;;;;;;6.45;4.15;;;;;;;-1.69;69.40;100710.53;10453122;28;20066;-78
2021/12/25 18:08:54;;;;;;;4.43;2.53;;;;;;;-1.69;70.95;100714.75;10453434;28;20025;-80
2021/12/25 18:13:56;;;;;;;5.38;3.13;;;;;;;-1.75;72.02;100711.63;10454524;28;20036;-81
2021/12/25 18:18:57;;;;;;;3.67;2.28;;;;;;;-1.72;70.28;100705.13;10453187;28;20056;-78
2021/12/25 18:23:57;;;;;;;4.68;2.67;;;;;;;-1.82;70.57;100708.47;10399451;28;20025;-80
2021/12/25 18:28:57;;;;;;;5.15;3.13;;;;;;;-1.85;71.68;100708.19;10447884;28;20511;-82
2021/12/25 18:33:58;;;;;;;3.92;2.33;;;;;;;-1.90;70.95;100704.28;10420550;28;20045;-78
2021/12/25 18:39:00;;;;;;;8.63;3.40;;;;;;;-1.84;69.82;100717.69;10469359;28;20037;-80
2021/12/25 18:44:01;;;;;;;9.30;4.50;;;;;;;-1.88;70.26;100714.69;10456422;28;20028;-82
2021/12/25 18:49:02;;;;;;;7.40;4.07;;;;;;;-1.90;70.09;100717.09;10460877;28;20082;-78
2021/12/25 18:54:02;;;;;;;6.40;3.80;;;;;;;-1.83;70.00;100721.16;10436124;28;20067;-78
2021/12/25 18:59:04;;;;;;;5.28;2.88;;;;;;;-1.93;71.42;100721.94;10452809;28;20477;-85
2021/12/25 19:04:05;;;;;;;7.30;2.80;;;;;;;-1.96;72.23;100722.56;10450488;28;20068;-81
2021/12/25 19:09:06;;;;;;;9.48;5.55;;;;;;;-2.11;70.89;100724.56;10447572;28;20094;-83
2021/12/25 19:14:06;;;;;;;8.57;3.97;;;;;;;-2.19;70.35;100730.63;10467156;28;20472;-84
2021/12/25 19:19:07;;;;;;;7.70;4.40;;;;;;;-2.40;72.52;100732.91;10453112;28;20120;-83
2021/12/25 19:24:07;;;;;;;8.65;3.95;;;;;;;-2.52;73.73;100729.16;10487323;28;20086;-83
2021/12/25 19:29:08;;;;;;;5.18;2.92;;;;;;;-2.65;73.01;100721.94;10460014;28;20060;-82
2021/12/25 19:34:09;;;;;;;10.82;4.78;;;;;;;-2.58;71.93;100728.56;10461318;28;20144;-83
2021/12/25 19:39:11;;;;;;;10.02;4.13;;;;;;;-2.55;73.32;100729.78;10494643;28;20111;-83
2021/12/25 19:44:12;;;;;;;8.25;4.70;;;;;;;-2.57;72.68;100720.13;10461078;28;20127;-83
2021/12/25 19:49:13;;;;;;;13.63;5.07;;;;;;;-2.62;74.01;100703.38;10461524;28;20024;-83
2021/12/25 19:54:13;;;;;;;11.13;4.97;;;;;;;-2.69;74.05;100707.03;10493542;28;20393;-83
2021/12/25 19:59:15;;;;;;;7.22;3.85;;;;;;;-2.72;74.42;100705.06;10460475;28;20029;-83
2021/12/25 20:04:16;;;;;;;9.57;4.88;;;;;;;-2.81;75.05;100704.16;10459177;28;20116;-83
2021/12/25 20:09:16;;;;;;;8.95;5.38;;;;;;;-2.92;75.46;100698.00;10442119;28;20140;-84
2021/12/25 20:14:17;;;;;;;7.85;4.72;;;;;;;-2.99;76.82;100699.03;10457961;28;20086;-84
2021/12/25 20:19:17;;;;;;;7.53;5.82;;;;;;;-2.97;76.18;100699.19;10458979;28;20021;-83
2021/12/25 20:24:18;;;;;;;13.43;8.07;;;;;;;-2.92;76.82;100692.88;10473301;28;20090;-84
2021/12/25 20:29:20;;;;;;;9.35;5.20;;;;;;;-2.86;76.21;100696.03;10456349;28;20049;-84
2021/12/25 20:34:22;;;;;;;10.55;4.95;;;;;;;-2.79;76.14;100692.41;10490111;28;20080;-87
2021/12/25 20:39:23;;;;;;;8.15;3.95;;;;;;;-2.72;74.62;100689.69;10459043;28;20037;-83
2021/12/25 20:49:24;;;;;;;8.70;4.25;;;;;;;-2.53;75.00;100694.94;10457190;28;20116;-83
2021/12/25 20:54:25;;;;;;;9.15;4.90;;;;;;;-2.45;73.31;100702.47;10475487;28;20029;-87
2021/12/25 20:59:29;;;;;;;6.15;3.20;;;;;;;-2.45;73.83;100700.81;10455110;28;20029;-83
2021/12/25 21:04:30;;;;;;;15.73;5.60;;;;;;;-2.43;74.31;100698.41;10437226;28;20385;-84
2021/12/25 21:09:32;;;;;;;9.45;5.18;;;;;;;-2.42;74.55;100700.22;10457509;28;20029;-84
2021/12/25 21:14:32;;;;;;;8.32;4.68;;;;;;;-2.41;74.04;100709.72;10457832;28;20100;-84
2021/12/25 21:19:33;;;;;;;9.90;5.95;;;;;;;-2.40;73.67;100696.13;10456125;28;20017;-84
2021/12/25 21:24:33;;;;;;;11.30;5.75;;;;;;;-2.40;74.58;100689.34;10456867;28;20111;-84
2021/12/25 21:29:34;;;;;;;10.32;5.53;;;;;;;-2.47;72.64;100684.38;10439123;28;20024;-84
2021/12/25 21:34:34;;;;;;;8.35;5.50;;;;;;;-2.47;73.81;100688.59;10455318;28;20132;-84
2021/12/25 21:39:35;;;;;;;10.07;4.70;;;;;;;-2.54;73.49;100684.53;10454943;28;20097;-84
2021/12/25 21:44:35;;;;;;;7.07;3.67;;;;;;;-2.67;72.95;100685.91;10454575;28;20045;-84
2021/12/25 21:49:36;;;;;;;11.73;4.80;;;;;;;-2.76;74.03;100691.81;10454303;28;20508;-85
2021/12/25 21:54:37;;;;;;;6.65;4.85;;;;;;;-2.83;73.29;100685.16;10471343;28;20155;-84
2021/12/25 21:59:38;;;;;;;8.60;4.10;;;;;;;-2.89;73.50;100677.78;10469999;28;20032;-85
2021/12/25 22:04:45;;;;;;;11.80;5.28;;;;;;;-3.02;73.80;100673.09;10456049;28;20060;-85
2021/12/25 22:09:48;;;;;;;8.15;4.28;;;;;;;-3.06;74.75;100680.34;10485266;28;20033;-85
2021/12/25 22:14:49;;;;;;;7.15;3.70;;;;;;;-3.13;74.19;100673.72;10454644;28;20024;-85
2021/12/25 22:19:53;;;;;;;9.18;4.47;;;;;;;-3.18;74.24;100668.16;10453746;28;20025;-85
2021/12/25 22:24:54;;;;;;;11.75;4.28;;;;;;;-3.22;74.30;100667.69;10454444;28;20069;-85
2021/12/25 22:29:54;;;;;;;8.35;3.92;;;;;;;-3.19;73.41;100678.22;10449156;28;20041;-85
2021/12/25 22:34:55;;;;;;;10.05;6.28;;;;;;;-3.21;73.80;100664.38;10454331;28;20520;-85
2021/12/25 22:39:56;;;;;;;13.05;6.78;;;;;;;-3.30;74.67;100659.25;10437844;28;20097;-85
2021/12/25 22:44:56;;;;;;;13.23;5.75;;;;;;;-3.44;74.30;100668.09;10436883;28;20048;-85
2021/12/25 22:49:58;;;;;;;11.70;6.57;;;;;;;-3.39;73.65;100664.34;10452365;28;20052;-84
2021/12/25 22:54:58;;;;;;;10.82;5.93;;;;;;;-3.27;74.86;100647.66;10487931;28;20029;-85
2021/12/25 22:59:59;;;;;;;13.52;7.20;;;;;;;-3.14;73.66;100643.72;10468015;28;20536;-85
2021/12/25 23:05:06;;;;;;;11.40;5.22;;;;;;;-3.05;73.84;100646.31;10453323;28;20033;-85
2021/12/25 23:10:10;;;;;;;13.63;6.07;;;;;;;-3.14;73.43;100646.28;10467829;28;20064;-85
2021/12/25 23:15:14;;;;;;;10.95;5.80;;;;;;;-3.28;74.43;100644.94;10452895;28;20040;-84
2021/12/25 23:20:14;;;;;;;7.60;3.95;;;;;;;-3.44;74.81;100643.44;10451765;28;20028;-85
2021/12/25 23:25:15;;;;;;;10.47;5.23;;;;;;;-3.40;74.87;100653.22;10470087;28;20036;-85
2021/12/25 23:30:15;;;;;;;11.57;5.32;;;;;;;-3.40;74.96;100647.19;10486416;28;20485;-84
2021/12/25 23:35:17;;;;;;;10.63;6.68;;;;;;;-3.40;74.90;100645.53;10452693;28;20095;-84
2021/12/25 23:40:18;;;;;;;12.43;5.72;;;;;;;-3.53;75.79;100642.50;10454119;28;20045;-85
2021/12/25 23:45:27;;;;;;;9.75;4.85;;;;;;;-3.75;75.88;100636.88;10419017;28;20067;-85
2021/12/25 23:50:28;;;;;;;14.35;6.70;;;;;;;-3.76;76.57;100628.31;10467845;28;20036;-85
2021/12/25 23:55:29;;;;;;;11.10;6.10;;;;;;;-3.79;76.69;100627.09;10451150;28;20112;-85
